DBBB/COO METAR and TAF weather

Enter ICAO airport designator
Station Type Date Time Source
DBBB METAR 2020/04/07 03:00 UTC NOAA

DBBB 070300Z 30002KT 8000 FEW010 26/24 Q1010 NOSIG


Station Type Date Time Source
DBBB Decoded METAR 2020/04/07 03:00 UTC NOAA

Cotonou, Benin (DBBB) 06-21N 002-23E 9M
Apr 06, 2020 - 11:00 PM EDT / 2020.04.07 0300 UTC
Wind: from the WNW (300 degrees) at 2 MPH (2 KT):0
Visibility: 4 mile(s):0
Sky conditions: mostly clear
Temperature: 78 F (26 C)
Dew Point: 75 F (24 C)
Relative Humidity: 88%
Pressure (altimeter): 29.83 in. Hg (1010 hPa)
ob: DBBB 070300Z 30002KT 8000 FEW010 26/24 Q1010 NOSIG
cycle: 3

Station Type Date Time Source
DBBB TAF 2020/04/06 18:21 UTC NOAA

TAF TAF DBBB 061700Z 0618/0724 22010KT 9999 BKN010 FEW023CB
TEMPO 0618/0622 4000 TSRA PROB30 0618/0620 09015G35KT
BECMG 0622/0624 SCT012

Example: see airport list